Zanesville, OH

3:55 AM EST on January 30, 2015 (GMT -0500)
APRSWXNET Zanesville OH US | Change Station
CLOSE
Current Station
Personal Weather Station
Location: Zanesville, OH
Elevation: 839 ft
Nearby Weather Stations

Elev 839 ft 39.95 °N, 82.00 °W | Updated 22 minutes ago

Overcast
Overcast
30 °F
Feels Like 30 °F
N
0
Wind Variable Wind from NNW
Gusts 0.0 mph

Today
High -- | Low -- °F
--% Chance of Precip.
Yesterday
High -- | Low -- °F
Precip. -- in
7:38 AM 5:44 PM
Waxing Gibbous, 81% visible
Pressure 30.10 in
Visibility 4.0 miles
Clouds Few 600 ft
Scattered Clouds 1200 ft
Overcast 3800 ft
Windchill 30 °F
Dew Point 28 °F
Humidity 94%
Rainfall -999.00 in
Snow Depth Not available.
UV 0 out of 12
Pollen .10 out of 12
Air Quality Not available.
Flu Activity Not available.
SPECI KZZV 300843Z AUTO 31009KT 4SM -SN BR FEW006 SCT012 OVC038 M02/M04 A3010 RMK AO2 SNB08 P0002 T10171039

More Conditions Fewer Conditions

Pressure 30.10 in
Visibility 4.0 miles
Clouds Few 600 ft
Scattered Clouds 1200 ft
Overcast 3800 ft
Windchill 30 °F
Dew Point 28 °F
Humidity 94%
Rainfall -999.00 in
Snow Depth Not available.
UV 0 out of 12
Pollen .10 out of 12
Air Quality Not available.
Flu Activity Not available.
SPECI KZZV 300843Z AUTO 31009KT 4SM -SN BR FEW006 SCT012 OVC038 M02/M04 A3010 RMK AO2 SNB08 P0002 T10171039

More Conditions Fewer Conditions

10-Day Weather Forecast

Almanac

Astronomy

Jan. 30, 2015 Rise Set
Actual Time
Civil Twilight
Nautical Twilight
Astronomical Twilight
Moon
Length of Visible Light
Length of Day
Tomorrow will be .
, % of the Moon is Illuminated

Today's Extremes

State Highs State Lows

Community

WunderPhotos

Upload Photos

1,791,730 photos uploaded!

WunderBlogs® & News

Nearby

Air Quality

  Air Quality AQ Index Pollutant
Not available.

Snow Depth

Station Depth Elevation

Earthquake Activity

City Distance Mag. Time & Date
Minimum magnitude displayed is 2.5.

Coastal Water Temperatures

Place Temperature

Nearby Weather Stations